Time;durP1;ratioP1;P1;durP2;ratioP2;P2;SDS_P1;SDS_P2;PMS_P1;PMS_P2;Temp;Humidity;BMP_temperature;BMP_pressure;BME280_temperature;BME280_humidity;BME280_pressure;Samples;Min_cycle;Max_cycle;Signal;HPM_P1;HPM_P2
2022/05/14 00:01:04;;;;;;;6.78;1.58;;;26.70;96.00;;;;;;5098392;28;20343;-49
2022/05/14 00:03:32;;;;;;;5.32;1.48;;;26.70;95.60;;;;;;5089803;28;20379;-45
2022/05/14 00:06:01;;;;;;;4.88;1.42;;;26.70;95.50;;;;;;5096528;28;20032;-47
2022/05/14 00:08:30;;;;;;;4.10;1.30;;;26.60;95.30;;;;;;5095971;28;20232;-46
2022/05/14 00:13:43;;;;;;;5.70;1.40;;;26.60;95.20;;;;;;5090283;28;20092;-51
2022/05/14 00:16:11;;;;;;;5.65;1.73;;;26.60;95.20;;;;;;5087126;28;20033;-44
2022/05/14 00:18:38;;;;;;;3.63;1.92;;;26.60;95.50;;;;;;5090609;28;20031;-48
2022/05/14 00:21:05;;;;;;;3.83;1.77;;;26.50;95.70;;;;;;5099202;28;20028;-56
2022/05/14 00:23:32;;;;;;;3.88;2.00;;;26.50;95.90;;;;;;5097351;28;20304;-49
2022/05/14 00:25:58;;;;;;;20.25;3.08;;;26.50;95.80;;;;;;5086681;28;20032;-48
2022/05/14 00:28:25;;;;;;;5.35;1.80;;;26.50;95.80;;;;;;5086571;28;20027;-52
2022/05/14 00:30:52;;;;;;;4.78;1.85;;;26.60;95.70;;;;;;5090039;28;20280;-55
2022/05/14 00:33:19;;;;;;;5.68;1.90;;;26.60;95.70;;;;;;5106119;28;20224;-52
2022/05/14 00:35:46;;;;;;;20.30;4.90;;;26.60;95.90;;;;;;5106881;28;20083;-48
2022/05/14 00:38:13;;;;;;;9.02;4.90;;;26.60;95.60;;;;;;5106542;28;20027;-47
2022/05/14 00:40:47;;;;;;;9.27;5.00;;;26.60;95.70;;;;;;5095335;28;20422;-47
2022/05/14 00:43:15;;;;;;;11.10;4.95;;;26.60;96.00;;;;;;5097877;28;20040;-51
2022/05/14 00:45:51;;;;;;;14.02;4.45;;;26.60;95.80;;;;;;5106535;28;20028;-47
2022/05/14 00:48:17;;;;;;;13.02;4.40;;;26.60;95.80;;;;;;5106550;28;20008;-51
2022/05/14 00:50:49;;;;;;;8.27;3.15;;;26.70;95.90;;;;;;5105966;28;20020;-50
2022/05/14 00:53:52;;;;;;;9.38;3.47;;;26.70;95.60;;;;;;5106647;28;20028;-53
2022/05/14 00:56:24;;;;;;;5.38;2.90;;;26.70;95.40;;;;;;5023413;28;20061;-55
2022/05/14 00:59:15;;;;;;;9.35;2.90;;;26.80;95.40;;;;;;5094239;28;20039;-49
2022/05/14 01:01:43;;;;;;;9.50;2.78;;;26.80;95.30;;;;;;5105655;28;20094;-49
2022/05/14 01:04:10;;;;;;;9.40;2.58;;;26.80;95.20;;;;;;5104777;28;20043;-55
2022/05/14 01:06:40;;;;;;;5.03;2.20;;;26.80;95.10;;;;;;5106315;28;20024;-54
2022/05/14 01:09:07;;;;;;;6.18;2.30;;;26.80;95.10;;;;;;5106298;28;20016;-48
2022/05/14 01:11:37;;;;;;;8.15;1.83;;;26.80;95.00;;;;;;5106039;28;20028;-52
2022/05/14 01:14:03;;;;;;;7.57;1.67;;;26.80;95.00;;;;;;5105982;28;20016;-50
2022/05/14 01:16:31;;;;;;;6.75;1.70;;;26.80;94.90;;;;;;5106243;28;20058;-52
2022/05/14 01:18:58;;;;;;;6.40;1.80;;;26.80;94.90;;;;;;5105958;28;20045;-49
2022/05/14 01:21:48;;;;;;;6.78;1.80;;;26.80;94.90;;;;;;5105999;28;20245;-50
2022/05/14 01:27:13;;;;;;;7.78;1.70;;;26.80;94.90;;;;;;5106314;28;20031;-51
2022/05/14 01:29:42;;;;;;;5.00;1.40;;;26.80;94.80;;;;;;5105891;28;20008;-53
2022/05/14 01:32:09;;;;;;;7.15;1.83;;;26.80;94.90;;;;;;5105668;28;20027;-51
2022/05/14 01:34:36;;;;;;;5.82;1.23;;;26.90;95.00;;;;;;5105749;28;20051;-51
2022/05/14 01:37:03;;;;;;;5.43;1.40;;;26.80;94.80;;;;;;5106115;28;20032;-51
2022/05/14 01:39:30;;;;;;;8.85;1.70;;;26.80;94.80;;;;;;5105517;28;20019;-53
2022/05/14 01:41:57;;;;;;;5.25;1.58;;;26.80;94.80;;;;;;5105292;28;20039;-52
2022/05/14 01:44:24;;;;;;;6.97;1.30;;;26.80;94.60;;;;;;5105484;28;20084;-54
2022/05/14 01:46:51;;;;;;;8.23;1.52;;;26.80;94.70;;;;;;5105709;28;20020;-52
2022/05/14 01:49:18;;;;;;;10.07;1.40;;;26.80;94.60;;;;;;5105271;28;20195;-53
2022/05/14 01:51:44;;;;;;;8.13;1.80;;;26.80;94.70;;;;;;5105717;28;20032;-51
2022/05/14 01:54:11;;;;;;;9.90;1.98;;;26.80;94.60;;;;;;5105215;28;20065;-56
2022/05/14 01:56:38;;;;;;;4.13;1.50;;;26.80;94.60;;;;;;5105700;28;20028;-52
2022/05/14 01:59:05;;;;;;;5.47;1.90;;;26.80;94.50;;;;;;5105186;28;20042;-49
2022/05/14 02:01:35;;;;;;;4.45;1.60;;;26.80;94.50;;;;;;5104821;28;20048;-48
2022/05/14 02:04:08;;;;;;;9.07;1.90;;;26.80;94.60;;;;;;5105198;28;20020;-51
2022/05/14 02:06:35;;;;;;;6.75;1.85;;;26.80;94.60;;;;;;5105153;28;20020;-54
2022/05/14 02:09:05;;;;;;;5.70;2.10;;;26.70;94.70;;;;;;5105083;28;20083;-50
2022/05/14 02:11:32;;;;;;;5.80;1.95;;;26.80;94.70;;;;;;5105225;28;20229;-52
2022/05/14 02:13:59;;;;;;;7.13;2.00;;;26.70;94.80;;;;;;5104849;28;20016;-47
2022/05/14 02:16:26;;;;;;;5.95;1.90;;;26.80;94.80;;;;;;5104835;28;20024;-49
2022/05/14 02:18:53;;;;;;;6.10;1.92;;;26.80;94.80;;;;;;5104872;28;20012;-51
2022/05/14 02:21:24;;;;;;;8.60;1.98;;;26.70;94.90;;;;;;5104903;28;20020;-52
2022/05/14 02:23:59;;;;;;;6.88;1.90;;;26.70;94.90;;;;;;5104018;28;20031;-53
2022/05/14 02:26:25;;;;;;;8.48;2.00;;;26.70;94.90;;;;;;5105025;28;20031;-48
2022/05/14 02:28:52;;;;;;;6.93;2.28;;;26.70;94.90;;;;;;5104607;28;20016;-51
2022/05/14 02:31:19;;;;;;;9.90;2.22;;;26.70;95.00;;;;;;5104785;28;20027;-48
2022/05/14 02:33:45;;;;;;;11.20;2.10;;;26.70;95.00;;;;;;5104582;28;20020;-51
2022/05/14 02:36:12;;;;;;;12.40;1.88;;;26.80;94.90;;;;;;5104586;28;20361;-55
2022/05/14 02:38:39;;;;;;;7.10;1.77;;;26.70;94.90;;;;;;5104466;28;20079;-53
2022/05/14 02:41:08;;;;;;;14.68;2.25;;;26.80;95.00;;;;;;5104642;28;20028;-50
2022/05/14 02:43:35;;;;;;;5.95;1.75;;;26.70;95.00;;;;;;5104237;28;20020;-52
2022/05/14 02:46:03;;;;;;;9.57;1.85;;;26.70;94.90;;;;;;5104503;28;20016;-55
2022/05/14 02:48:31;;;;;;;6.90;1.80;;;26.70;94.90;;;;;;5104387;28;20019;-52
2022/05/14 02:50:58;;;;;;;7.65;1.88;;;26.70;95.00;;;;;;5104332;28;20359;-55
2022/05/14 02:53:25;;;;;;;7.18;1.80;;;26.70;94.90;;;;;;5104299;28;20015;-56
2022/05/14 02:55:54;;;;;;;7.78;1.73;;;26.70;94.90;;;;;;5104390;28;20129;-52
2022/05/14 03:01:06;;;;;;;6.97;1.70;;;26.70;94.90;;;;;;5104030;28;20048;-49
2022/05/14 03:03:33;;;;;;;8.40;1.90;;;26.70;94.90;;;;;;5103942;28;20020;-49
2022/05/14 03:06:00;;;;;;;3.67;1.50;;;26.70;94.90;;;;;;5104236;28;20043;-50
2022/05/14 03:08:27;;;;;;;9.75;1.90;;;26.60;94.90;;;;;;5104142;28;20019;-53
2022/05/14 03:10:54;;;;;;;7.40;2.00;;;26.70;94.80;;;;;;5104034;28;20292;-53
2022/05/14 03:13:21;;;;;;;10.15;1.90;;;26.70;94.90;;;;;;5104056;28;20091;-50
2022/05/14 03:15:48;;;;;;;9.02;1.77;;;26.70;94.90;;;;;;5104075;28;20316;-56
2022/05/14 03:18:15;;;;;;;12.00;1.90;;;26.70;94.90;;;;;;5103879;28;20050;-50
2022/05/14 03:20:42;;;;;;;7.20;1.55;;;26.70;94.90;;;;;;5104049;28;20031;-59
2022/05/14 03:23:09;;;;;;;6.47;1.60;;;26.70;94.80;;;;;;5103863;28;20016;-48
2022/05/14 03:25:36;;;;;;;8.90;1.85;;;26.60;94.80;;;;;;5103885;28;20027;-56
2022/05/14 03:28:03;;;;;;;9.70;1.48;;;26.70;94.80;;;;;;5103953;28;20019;-55
2022/05/14 03:30:29;;;;;;;6.60;1.70;;;26.70;94.60;;;;;;5104079;28;20040;-51
2022/05/14 03:32:56;;;;;;;10.52;2.00;;;26.70;94.60;;;;;;5103830;28;20020;-47
2022/05/14 03:35:23;;;;;;;5.53;1.90;;;26.70;94.60;;;;;;5105821;28;20057;-48
2022/05/14 03:37:49;;;;;;;11.15;1.88;;;26.60;94.60;;;;;;5107997;28;20048;-51
2022/05/14 03:40:16;;;;;;;8.32;2.00;;;26.70;94.60;;;;;;5107808;28;20020;-50
2022/05/14 03:42:43;;;;;;;7.75;2.10;;;26.70;94.40;;;;;;5107938;28;20027;-53
2022/05/14 03:45:10;;;;;;;10.73;1.80;;;26.70;94.40;;;;;;5107850;28;20012;-48
2022/05/14 03:47:36;;;;;;;9.63;1.70;;;26.70;94.30;;;;;;5107645;28;20027;-53
2022/05/14 03:50:04;;;;;;;7.93;1.92;;;26.60;94.20;;;;;;5107799;28;20027;-50
2022/05/14 03:52:30;;;;;;;8.38;2.05;;;26.70;94.20;;;;;;5108200;28;20028;-50
2022/05/14 03:54:57;;;;;;;8.02;2.10;;;26.60;94.10;;;;;;5107663;28;20027;-51
2022/05/14 03:57:24;;;;;;;8.57;2.22;;;26.60;94.10;;;;;;5108049;28;20020;-50
2022/05/14 03:59:50;;;;;;;7.65;2.03;;;26.70;94.00;;;;;;5107626;28;20093;-54
2022/05/14 04:02:17;;;;;;;9.00;2.30;;;26.70;94.10;;;;;;5107396;28;20111;-51
2022/05/14 04:04:44;;;;;;;10.15;2.33;;;26.70;94.20;;;;;;5107408;28;20383;-49
2022/05/14 04:07:11;;;;;;;8.00;2.00;;;26.60;94.10;;;;;;5107811;28;20028;-50
2022/05/14 04:09:37;;;;;;;11.55;2.80;;;26.60;94.20;;;;;;5107393;28;20130;-51
2022/05/14 04:12:05;;;;;;;10.45;3.08;;;26.70;94.50;;;;;;5107569;28;20047;-57
2022/05/14 04:14:31;;;;;;;9.35;3.95;;;26.70;94.20;;;;;;5107326;28;20016;-55
2022/05/14 04:17:01;;;;;;;7.30;3.25;;;26.70;94.20;;;;;;5107613;28;20301;-50
2022/05/14 04:19:28;;;;;;;6.53;3.00;;;26.70;94.30;;;;;;5107099;28;20020;-49
2022/05/14 04:21:54;;;;;;;13.35;2.67;;;26.70;94.40;;;;;;5107407;28;20032;-51
2022/05/14 04:24:21;;;;;;;10.63;2.60;;;26.60;94.40;;;;;;5107024;28;20069;-53
2022/05/14 04:26:48;;;;;;;7.68;2.70;;;26.60;94.30;;;;;;5107253;28;20020;-54
2022/05/14 04:29:14;;;;;;;6.78;3.00;;;26.60;94.30;;;;;;5107045;28;20075;-47
2022/05/14 04:31:41;;;;;;;12.15;3.30;;;26.60;94.40;;;;;;5107359;28;20035;-52
2022/05/14 04:34:08;;;;;;;6.65;2.80;;;26.60;94.50;;;;;;5106812;28;20304;-54
2022/05/14 04:36:35;;;;;;;8.02;3.33;;;26.60;94.50;;;;;;5107174;28;20312;-50
2022/05/14 04:39:01;;;;;;;9.43;3.13;;;26.60;94.50;;;;;;5106947;28;20019;-48
2022/05/14 04:41:30;;;;;;;19.52;14.43;;;26.60;94.50;;;;;;5106899;28;20016;-53
2022/05/14 04:43:58;;;;;;;17.27;9.32;;;26.60;94.60;;;;;;5106853;28;20296;-51
2022/05/14 04:46:25;;;;;;;9.45;5.47;;;26.60;94.60;;;;;;5106008;28;20024;-56
2022/05/14 04:48:53;;;;;;;11.48;5.50;;;26.60;94.60;;;;;;5106516;28;20043;-51
2022/05/14 04:51:20;;;;;;;20.23;13.40;;;26.60;94.60;;;;;;5106781;28;20235;-50
2022/05/14 04:53:47;;;;;;;20.02;10.45;;;26.60;94.50;;;;;;5106596;28;20020;-51
2022/05/14 04:56:13;;;;;;;13.23;8.68;;;26.60;94.70;;;;;;5106528;28;20032;-53
2022/05/14 04:58:40;;;;;;;15.88;8.43;;;26.60;94.50;;;;;;5106441;28;20024;-50
2022/05/14 05:01:07;;;;;;;14.98;6.65;;;26.60;94.40;;;;;;5106184;28;20051;-49
2022/05/14 05:03:34;;;;;;;10.38;6.22;;;26.60;94.30;;;;;;5106177;28;20263;-45
2022/05/14 05:06:01;;;;;;;11.00;5.38;;;26.60;94.40;;;;;;5106405;28;20028;-49
2022/05/14 05:08:30;;;;;;;10.38;5.63;;;26.60;94.30;;;;;;5106331;28;20015;-50
2022/05/14 05:10:57;;;;;;;14.23;4.47;;;26.60;94.30;;;;;;5101270;28;20035;-51
2022/05/14 05:13:26;;;;;;;10.68;4.45;;;26.60;94.20;;;;;;5098276;28;20020;-53
2022/05/14 05:15:53;;;;;;;11.80;3.45;;;26.60;94.30;;;;;;5086000;28;20039;-51
2022/05/14 05:18:20;;;;;;;9.43;2.92;;;26.60;94.30;;;;;;5085682;28;20025;-51
2022/05/14 05:20:52;;;;;;;10.20;3.20;;;26.60;94.30;;;;;;5085884;28;20328;-49
2022/05/14 05:23:21;;;;;;;8.15;2.97;;;26.60;94.30;;;;;;5085524;28;20026;-46
2022/05/14 05:25:49;;;;;;;8.13;2.83;;;26.60;94.30;;;;;;5084976;28;20060;-54
2022/05/14 05:28:16;;;;;;;8.15;2.60;;;26.60;94.40;;;;;;5085542;28;20017;-52
2022/05/14 05:30:43;;;;;;;7.43;2.47;;;26.60;94.50;;;;;;5084032;28;20024;-52
2022/05/14 05:33:11;;;;;;;10.23;2.67;;;26.60;94.50;;;;;;5083991;28;20466;-57
2022/05/14 05:35:38;;;;;;;12.60;2.63;;;26.60;94.60;;;;;;5084179;28;20028;-52
2022/05/14 05:38:04;;;;;;;11.13;2.85;;;26.60;94.60;;;;;;5085895;28;20024;-56
2022/05/14 05:40:31;;;;;;;10.20;2.50;;;26.60;94.60;;;;;;5093750;28;20020;-52
2022/05/14 05:42:58;;;;;;;13.48;2.40;;;26.60;94.60;;;;;;5085293;28;20024;-59
2022/05/14 05:45:24;;;;;;;6.85;2.10;;;26.60;94.60;;;;;;5097265;28;20039;-53
2022/05/14 05:47:51;;;;;;;7.72;1.92;;;26.60;94.60;;;;;;5099660;28;20030;-60
2022/05/14 05:50:18;;;;;;;6.30;2.20;;;26.60;94.60;;;;;;5086691;28;20020;-49
2022/05/14 05:52:44;;;;;;;10.07;2.20;;;26.60;94.60;;;;;;5093858;28;20023;-53
2022/05/14 05:57:56;;;;;;;7.07;2.50;;;26.60;94.60;;;;;;5103618;28;20031;-51
2022/05/14 06:00:26;;;;;;;7.47;2.72;;;26.60;94.50;;;;;;5103446;28;20087;-56
2022/05/14 06:02:54;;;;;;;7.10;2.38;;;26.60;94.50;;;;;;5103346;28;20351;-52
2022/05/14 06:05:21;;;;;;;10.00;3.05;;;26.60;94.40;;;;;;5103441;28;20289;-48
2022/05/14 06:07:48;;;;;;;13.27;2.83;;;26.60;94.40;;;;;;5103348;28;20016;-51
2022/05/14 06:10:18;;;;;;;6.95;2.72;;;26.60;94.30;;;;;;5103750;28;20012;-52
2022/05/14 06:12:46;;;;;;;10.13;2.22;;;26.60;94.20;;;;;;5105053;28;20078;-49
2022/05/14 06:15:16;;;;;;;10.10;2.42;;;26.60;94.00;;;;;;5104753;28;20012;-48
2022/05/14 06:17:43;;;;;;;6.45;1.98;;;26.60;94.30;;;;;;5104456;28;20035;-57
2022/05/14 06:20:12;;;;;;;7.10;2.30;;;26.60;94.10;;;;;;5104988;28;20024;-46
2022/05/14 06:22:39;;;;;;;11.80;2.72;;;26.60;93.90;;;;;;5104817;28;20101;-48
2022/05/14 06:25:07;;;;;;;9.95;2.53;;;26.60;94.00;;;;;;5104763;28;20012;-54
2022/05/14 06:27:33;;;;;;;8.63;2.70;;;26.60;93.90;;;;;;5100628;28;20044;-52
2022/05/14 06:30:00;;;;;;;12.40;3.17;;;26.60;93.90;;;;;;5093331;28;20027;-58
2022/05/14 06:32:27;;;;;;;7.90;2.83;;;26.60;93.80;;;;;;5085033;28;20024;-47
2022/05/14 06:34:54;;;;;;;8.45;2.60;;;26.60;93.80;;;;;;5084713;28;20027;-47
2022/05/14 06:37:20;;;;;;;9.02;2.67;;;26.60;93.70;;;;;;5084723;28;20028;-50
2022/05/14 06:39:47;;;;;;;8.18;2.72;;;26.60;93.60;;;;;;5084319;28;20083;-52
2022/05/14 06:42:14;;;;;;;8.85;2.38;;;26.60;93.60;;;;;;5084608;28;20032;-52
2022/05/14 06:44:41;;;;;;;10.30;2.45;;;26.60;93.60;;;;;;5084116;28;20016;-50
2022/05/14 06:47:07;;;;;;;8.73;2.60;;;26.50;93.60;;;;;;5084609;28;20082;-49
2022/05/14 06:49:34;;;;;;;9.13;2.30;;;26.50;93.50;;;;;;5084135;28;20345;-51
2022/05/14 06:52:02;;;;;;;7.97;2.00;;;26.50;93.60;;;;;;5084389;28;20130;-49
2022/05/14 06:54:32;;;;;;;7.47;1.83;;;26.50;93.50;;;;;;5084130;28;20020;-48
2022/05/14 06:57:02;;;;;;;7.45;2.20;;;26.50;93.50;;;;;;5084433;28;20256;-50
2022/05/14 06:59:28;;;;;;;10.35;2.33;;;26.60;93.50;;;;;;5084032;28;20251;-51
2022/05/14 07:01:55;;;;;;;8.90;2.40;;;26.60;93.60;;;;;;5083789;28;20036;-48
2022/05/14 07:07:07;;;;;;;7.57;2.53;;;26.50;93.70;;;;;;5084443;28;20378;-48
2022/05/14 07:09:34;;;;;;;9.07;2.33;;;26.60;93.80;;;;;;5083626;28;20179;-47
2022/05/14 07:12:04;;;;;;;9.88;3.00;;;26.60;93.80;;;;;;5084271;28;20036;-50
2022/05/14 07:14:32;;;;;;;8.88;3.05;;;26.60;93.80;;;;;;5082808;28;20361;-50
2022/05/14 07:16:59;;;;;;;5.80;2.63;;;26.50;93.90;;;;;;5084239;28;20028;-48
2022/05/14 07:19:26;;;;;;;12.45;2.85;;;26.60;94.00;;;;;;5083712;28;20020;-51
2022/05/14 07:21:54;;;;;;;10.73;2.80;;;26.50;94.00;;;;;;5084074;28;20099;-47
2022/05/14 07:24:25;;;;;;;7.20;2.70;;;26.50;94.10;;;;;;5083779;28;20012;-52
2022/05/14 07:26:54;;;;;;;9.23;3.05;;;26.50;94.20;;;;;;5084102;28;20085;-50
2022/05/14 07:29:23;;;;;;;12.07;3.67;;;26.50;94.30;;;;;;5083767;28;20079;-53
2022/05/14 07:31:50;;;;;;;7.82;2.97;;;26.50;94.40;;;;;;5083965;28;20029;-49
2022/05/14 07:34:17;;;;;;;8.77;3.35;;;26.50;94.40;;;;;;5083741;28;20024;-47
2022/05/14 07:36:56;;;;;;;9.50;3.17;;;26.60;94.50;;;;;;5084042;28;20268;-51
2022/05/14 07:39:27;;;;;;;9.60;3.28;;;26.50;94.50;;;;;;5083623;28;20076;-49
2022/05/14 07:41:59;;;;;;;10.43;3.43;;;26.50;94.50;;;;;;5084123;28;20025;-52
2022/05/14 07:44:30;;;;;;;9.32;3.45;;;26.50;94.50;;;;;;5083564;28;20242;-48
2022/05/14 07:46:58;;;;;;;9.13;3.50;;;26.50;94.70;;;;;;5083577;28;20070;-54
2022/05/14 07:49:26;;;;;;;8.75;3.78;;;26.40;94.80;;;;;;5083582;28;20016;-49
2022/05/14 07:51:54;;;;;;;11.15;3.85;;;26.40;94.90;;;;;;5083774;28;20063;-51
2022/05/14 07:54:23;;;;;;;8.93;4.05;;;26.40;95.00;;;;;;5083523;28;20016;-52
2022/05/14 07:56:50;;;;;;;10.73;3.72;;;26.40;95.00;;;;;;5083922;28;20088;-50
2022/05/14 07:59:16;;;;;;;8.88;3.92;;;26.40;95.10;;;;;;5083356;28;20059;-49
2022/05/14 08:01:43;;;;;;;11.95;4.25;;;26.30;95.10;;;;;;5083437;28;20049;-48
2022/05/14 08:04:10;;;;;;;14.05;4.25;;;26.30;95.10;;;;;;5083418;28;20043;-51
2022/05/14 08:06:37;;;;;;;13.13;3.65;;;26.30;95.20;;;;;;5083539;28;20096;-50
2022/05/14 08:09:05;;;;;;;12.70;3.13;;;26.30;95.30;;;;;;5083386;28;20126;-52
2022/05/14 08:11:32;;;;;;;11.23;3.38;;;26.30;95.40;;;;;;5083647;28;20048;-52
2022/05/14 08:13:59;;;;;;;8.20;2.90;;;26.30;95.50;;;;;;5083240;28;20030;-51
2022/05/14 08:16:28;;;;;;;10.18;2.78;;;26.30;95.40;;;;;;5082389;28;20024;-56
2022/05/14 08:18:54;;;;;;;8.85;2.80;;;26.30;95.40;;;;;;5083297;28;20017;-47
2022/05/14 08:27:12;;;;;;;8.82;2.25;;;26.30;95.50;;;;;;5045024;28;20076;-49
2022/05/14 08:29:39;;;;;;;9.50;2.28;;;26.30;95.50;;;;;;5045049;28;20029;-53
2022/05/14 08:32:07;;;;;;;9.85;2.53;;;26.30;95.60;;;;;;5065103;28;20059;-48
2022/05/14 08:34:34;;;;;;;8.75;1.98;;;26.30;95.60;;;;;;5086835;28;20079;-48
2022/05/14 08:37:01;;;;;;;9.65;2.53;;;26.30;95.60;;;;;;5086977;28;20048;-50
2022/05/14 08:39:28;;;;;;;9.18;2.28;;;26.30;95.60;;;;;;5086562;28;20016;-48
2022/05/14 08:41:57;;;;;;;10.27;2.70;;;26.30;95.70;;;;;;5086988;28;20020;-50
2022/05/14 08:44:32;;;;;;;11.50;2.95;;;26.30;95.80;;;;;;5086418;28;20016;-50
2022/05/14 08:47:06;;;;;;;8.82;2.90;;;26.30;95.90;;;;;;5086862;28;20024;-49
2022/05/14 08:49:35;;;;;;;8.48;2.90;;;26.20;96.00;;;;;;5086436;28;20208;-49
2022/05/14 08:52:09;;;;;;;8.98;2.83;;;26.20;96.00;;;;;;5086623;28;20028;-53
2022/05/14 08:54:36;;;;;;;9.13;2.95;;;26.20;96.10;;;;;;5086360;28;20022;-50
2022/05/14 08:57:27;;;;;;;9.25;2.53;;;26.20;96.10;;;;;;5086675;28;20088;-58
2022/05/14 09:00:00;;;;;;;7.82;2.60;;;26.20;96.10;;;;;;5086344;28;20027;-46
2022/05/14 09:02:32;;;;;;;5.93;2.30;;;26.20;96.20;;;;;;5085796;28;20044;-52
2022/05/14 09:05:02;;;;;;;5.72;2.40;;;26.10;96.20;;;;;;5086264;28;20026;-50
2022/05/14 09:07:29;;;;;;;6.68;2.38;;;26.10;96.20;;;;;;5086634;28;20021;-46
2022/05/14 09:09:58;;;;;;;4.95;2.22;;;26.10;96.20;;;;;;5085972;28;20044;-47
2022/05/14 09:12:29;;;;;;;7.70;2.15;;;26.20;96.10;;;;;;5086490;28;20099;-50
2022/05/14 09:14:59;;;;;;;4.22;2.08;;;26.20;96.10;;;;;;5085985;28;20016;-47
2022/05/14 09:17:29;;;;;;;5.25;2.30;;;26.20;96.20;;;;;;5086436;28;20028;-48
2022/05/14 09:19:57;;;;;;;4.63;1.80;;;26.10;96.20;;;;;;5085886;28;20028;-48
2022/05/14 09:22:27;;;;;;;7.68;2.63;;;26.10;96.20;;;;;;5086067;28;20028;-47
2022/05/14 09:25:20;;;;;;;8.60;2.33;;;26.20;96.20;;;;;;5085712;28;20009;-52
2022/05/14 09:27:58;;;;;;;4.68;2.20;;;26.20;96.20;;;;;;5085623;28;20024;-51
2022/05/14 09:30:58;;;;;;;5.53;1.77;;;26.20;96.20;;;;;;5085736;28;20009;-51
2022/05/14 09:33:36;;;;;;;6.00;1.70;;;26.20;96.10;;;;;;5042481;28;20040;-47
2022/05/14 09:36:05;;;;;;;6.03;2.10;;;26.20;96.10;;;;;;5085610;28;20031;-50
2022/05/14 09:38:32;;;;;;;6.78;1.83;;;26.20;96.10;;;;;;5085544;28;20016;-46
2022/05/14 09:41:24;;;;;;;4.63;1.70;;;26.20;96.10;;;;;;5085635;28;20028;-55
2022/05/14 09:43:53;;;;;;;7.43;1.90;;;26.20;96.00;;;;;;5085369;28;20405;-47
2022/05/14 09:46:29;;;;;;;3.33;1.67;;;26.20;96.00;;;;;;5085549;28;20024;-50
2022/05/14 09:49:07;;;;;;;6.20;1.85;;;26.20;96.00;;;;;;5085229;28;20364;-47
2022/05/14 09:51:43;;;;;;;4.28;2.05;;;26.20;96.00;;;;;;5085458;28;20033;-52
2022/05/14 09:54:21;;;;;;;3.13;1.50;;;26.20;95.90;;;;;;5085091;28;20027;-50
2022/05/14 09:56:54;;;;;;;3.03;1.52;;;26.20;95.90;;;;;;5085601;28;20016;-48
2022/05/14 09:59:42;;;;;;;4.93;1.60;;;26.20;95.90;;;;;;5084969;28;20024;-45
2022/05/14 10:02:28;;;;;;;4.55;1.45;;;26.20;95.90;;;;;;5084873;28;20052;-47
2022/05/14 10:05:17;;;;;;;7.30;1.40;;;26.20;95.90;;;;;;5084902;28;20020;-50
2022/05/14 10:07:50;;;;;;;3.35;1.60;;;26.20;95.80;;;;;;5084806;28;20020;-51
2022/05/14 10:10:40;;;;;;;6.72;1.52;;;26.20;95.90;;;;;;5084816;28;20233;-51
2022/05/14 10:13:25;;;;;;;5.75;1.73;;;26.10;95.90;;;;;;5084208;28;20268;-47
2022/05/14 10:16:07;;;;;;;3.13;1.23;;;26.20;95.90;;;;;;5084935;28;20084;-53
2022/05/14 10:19:09;;;;;;;3.40;1.45;;;26.20;95.90;;;;;;5084728;28;20023;-57
2022/05/14 10:22:00;;;;;;;4.22;1.58;;;26.20;96.00;;;;;;5042568;28;20121;-47
2022/05/14 10:27:40;;;;;;;4.07;1.23;;;26.20;96.00;;;;;;5085021;28;20036;-47
2022/05/14 10:30:53;;;;;;;5.50;1.75;;;26.10;95.90;;;;;;5084511;28;20021;-55
2022/05/14 10:33:26;;;;;;;4.60;1.83;;;26.10;95.90;;;;;;5084422;28;20021;-49
2022/05/14 10:36:01;;;;;;;2.72;1.42;;;26.10;95.90;;;;;;5084475;28;20029;-53
2022/05/14 10:38:41;;;;;;;3.50;1.85;;;26.10;95.80;;;;;;5086560;28;20020;-52
2022/05/14 10:41:08;;;;;;;5.18;1.73;;;26.10;95.80;;;;;;5084468;28;20024;-47
2022/05/14 10:43:57;;;;;;;7.30;2.03;;;26.10;95.70;;;;;;5084087;28;20087;-49
2022/05/14 10:46:27;;;;;;;5.80;1.90;;;26.10;95.80;;;;;;5084195;28;20048;-54
2022/05/14 10:49:14;;;;;;;5.38;2.17;;;26.10;95.70;;;;;;5084128;28;20021;-49
2022/05/14 10:51:53;;;;;;;5.70;2.22;;;26.10;95.70;;;;;;5084460;28;20031;-48
2022/05/14 10:54:23;;;;;;;4.18;1.90;;;26.00;95.70;;;;;;5084160;28;20368;-46
2022/05/14 10:57:00;;;;;;;7.18;2.53;;;26.00;95.60;;;;;;5084434;28;20060;-48
2022/05/14 10:59:36;;;;;;;5.18;2.50;;;26.00;95.60;;;;;;5084099;28;20021;-51
2022/05/14 11:02:07;;;;;;;5.35;2.42;;;26.10;95.60;;;;;;5082585;28;20240;-52
2022/05/14 11:04:37;;;;;;;6.18;2.22;;;26.00;95.60;;;;;;5083827;28;20083;-50
2022/05/14 11:07:07;;;;;;;4.43;2.40;;;26.10;95.50;;;;;;5084410;28;20044;-51
2022/05/14 11:09:44;;;;;;;5.60;2.40;;;26.10;95.40;;;;;;5084039;28;20193;-52
2022/05/14 11:12:33;;;;;;;10.18;3.13;;;26.10;95.40;;;;;;5089895;28;20016;-54
2022/05/14 11:15:01;;;;;;;12.18;3.13;;;26.10;95.60;;;;;;5089186;28;20355;-54
2022/05/14 11:17:32;;;;;;;7.07;3.10;;;26.00;95.70;;;;;;5095844;28;20331;-59
2022/05/14 11:20:04;;;;;;;8.13;3.15;;;26.00;95.80;;;;;;5104188;28;20024;-61
2022/05/14 11:22:41;;;;;;;;;;;25.80;96.00;;;;;;5104751;28;20086;-60
2022/05/14 11:25:20;;;;;;;5.15;2.90;;;25.70;96.10;;;;;;5104068;28;19904;-63
2022/05/14 11:28:13;;;;;;;9.50;3.25;;;25.70;96.50;;;;;;5103914;28;20078;-58
2022/05/14 11:30:47;;;;;;;6.15;2.65;;;25.60;96.70;;;;;;5104037;28;20075;-61
2022/05/14 11:33:28;;;;;;;7.35;3.13;;;25.60;96.80;;;;;;5104048;28;20064;-50
2022/05/14 11:35:58;;;;;;;7.00;3.22;;;25.60;96.80;;;;;;5103969;28;20076;-49
2022/05/14 11:38:26;;;;;;;8.65;3.05;;;25.70;96.80;;;;;;5093697;28;20313;-52
2022/05/14 11:41:05;;;;;;;7.45;3.22;;;25.80;96.50;;;;;;5099482;28;20020;-49
2022/05/14 11:43:53;;;;;;;7.57;2.80;;;25.90;96.30;;;;;;5103620;28;20024;-51
2022/05/14 11:46:29;;;;;;;6.20;3.00;;;25.90;96.10;;;;;;5103017;28;20312;-51
2022/05/14 11:49:09;;;;;;;5.43;2.65;;;26.00;96.00;;;;;;5102057;28;20042;-50
2022/05/14 11:52:03;;;;;;;6.28;3.05;;;26.00;95.80;;;;;;5102279;28;20316;-53
2022/05/14 11:54:57;;;;;;;5.35;2.30;;;26.00;95.80;;;;;;5102040;28;20693;-49
2022/05/14 11:57:52;;;;;;;4.47;2.40;;;26.10;95.80;;;;;;5100249;28;20040;-51
2022/05/14 12:00:40;;;;;;;6.50;2.60;;;26.10;95.70;;;;;;5095476;28;20097;-50
2022/05/14 12:03:16;;;;;;;6.65;2.58;;;26.10;95.60;;;;;;5087229;28;20416;-50
2022/05/14 12:05:51;;;;;;;6.65;2.60;;;26.10;95.60;;;;;;5086992;28;20028;-47
2022/05/14 12:08:45;;;;;;;4.90;2.60;;;26.10;95.50;;;;;;5087231;28;20309;-53
2022/05/14 12:11:47;;;;;;;8.15;2.58;;;26.10;95.50;;;;;;5087656;28;20020;-50
2022/05/14 12:14:19;;;;;;;4.32;2.25;;;26.20;95.40;;;;;;5089589;28;20016;-48
2022/05/14 12:16:52;;;;;;;6.47;2.50;;;26.20;95.40;;;;;;5094066;28;20263;-50
2022/05/14 12:19:44;;;;;;;5.32;2.67;;;26.20;95.50;;;;;;5088507;28;20016;-51
2022/05/14 12:22:20;;;;;;;6.53;2.40;;;26.20;95.30;;;;;;5090313;28;20209;-52
2022/05/14 12:25:08;;;;;;;7.32;2.60;;;26.30;95.40;;;;;;5086775;28;20582;-50
2022/05/14 12:27:44;;;;;;;8.57;2.60;;;26.30;95.40;;;;;;5087143;28;20127;-48
2022/05/14 12:30:13;;;;;;;6.90;2.60;;;26.30;95.40;;;;;;5086691;28;20021;-51
2022/05/14 12:35:33;;;;;;;6.43;2.90;;;26.30;95.40;;;;;;5086606;28;20243;-47
2022/05/14 12:38:05;;;;;;;6.18;2.75;;;26.40;95.40;;;;;;5086581;28;20070;-51
2022/05/14 12:40:38;;;;;;;7.22;2.72;;;26.40;95.50;;;;;;5086703;28;20036;-51
2022/05/14 12:43:08;;;;;;;7.38;2.60;;;26.40;95.40;;;;;;5086415;28;20028;-48
2022/05/14 12:45:35;;;;;;;5.40;2.67;;;26.40;95.40;;;;;;5086410;28;20366;-51
2022/05/14 12:48:03;;;;;;;5.22;2.85;;;26.40;95.50;;;;;;5086597;28;20087;-48
2022/05/14 12:50:35;;;;;;;4.78;2.42;;;26.40;95.40;;;;;;5086390;28;20044;-49
2022/05/14 12:53:07;;;;;;;4.78;2.65;;;26.50;95.50;;;;;;5086187;28;20024;-52
2022/05/14 12:55:39;;;;;;;;;;;26.50;95.40;;;;;;5086692;28;20044;-52
2022/05/14 12:58:07;;;;;;;3.50;2.28;;;26.50;95.50;;;;;;5086215;28;19904;-49
2022/05/14 13:00:37;;;;;;;5.50;2.35;;;26.50;95.60;;;;;;5086227;28;20024;-53
2022/05/14 13:03:23;;;;;;;4.18;2.40;;;26.50;95.60;;;;;;5085991;28;20044;-48
2022/05/14 13:06:00;;;;;;;5.80;2.47;;;26.50;95.60;;;;;;5086226;28;20025;-48
2022/05/14 13:08:28;;;;;;;6.13;2.55;;;26.50;95.50;;;;;;5085442;28;20017;-49
2022/05/14 13:11:06;;;;;;;5.00;2.53;;;26.60;95.60;;;;;;5095421;28;20012;-50
2022/05/14 13:13:41;;;;;;;4.97;2.40;;;26.50;95.50;;;;;;5086102;28;20044;-56
2022/05/14 13:16:12;;;;;;;6.15;2.72;;;26.60;95.50;;;;;;5085984;28;20197;-52
2022/05/14 13:18:49;;;;;;;7.55;2.83;;;26.60;95.50;;;;;;5085947;28;20016;-50
2022/05/14 13:21:38;;;;;;;6.68;2.90;;;26.60;95.50;;;;;;5085889;28;20031;-47
2022/05/14 13:24:25;;;;;;;7.47;3.17;;;26.60;95.50;;;;;;5087338;28;20039;-50
2022/05/14 13:26:54;;;;;;;7.97;2.88;;;26.60;95.60;;;;;;5086169;28;20027;-51
2022/05/14 13:29:28;;;;;;;5.47;2.83;;;26.60;95.50;;;;;;5085680;28;20088;-49
2022/05/14 13:32:25;;;;;;;6.25;3.15;;;26.60;95.70;;;;;;5085468;28;20105;-49